createdAt,value
2023-05-14T00:00:38.773Z,4.00
2023-05-14T00:03:28.806Z,4.10
2023-05-14T00:06:15.101Z,4.70
2023-05-14T00:09:00.748Z,3.90
2023-05-14T00:11:47.530Z,4.50
2023-05-14T00:14:33.542Z,3.90
2023-05-14T00:17:18.984Z,3.70
2023-05-14T00:20:08.328Z,3.60
2023-05-14T00:22:54.949Z,3.20
2023-05-14T00:25:40.476Z,3.30
2023-05-14T00:28:27.088Z,2.80
2023-05-14T00:31:13.467Z,2.80
2023-05-14T00:36:44.208Z,3.10
2023-05-14T00:39:29.522Z,3.80
2023-05-14T00:42:15.229Z,4.00
2023-05-14T00:45:00.826Z,4.40
2023-05-14T00:47:47.491Z,6.80
2023-05-14T00:50:34.047Z,6.20
2023-05-14T00:53:20.288Z,6.00
2023-05-14T00:56:07.710Z,4.80
2023-05-14T00:58:53.119Z,5.50
2023-05-14T01:01:38.834Z,4.50
2023-05-14T01:04:24.404Z,4.60
2023-05-14T01:07:33.452Z,4.40
2023-05-14T01:10:24.641Z,3.80
2023-05-14T01:13:29.374Z,4.20
2023-05-14T01:16:18.215Z,3.30
2023-05-14T01:19:07.276Z,3.60
2023-05-14T01:21:52.636Z,3.70
2023-05-14T01:24:39.264Z,3.70
2023-05-14T01:27:29.212Z,3.20
2023-05-14T01:30:14.744Z,3.30
2023-05-14T01:33:03.229Z,3.20
2023-05-14T01:35:52.987Z,3.50
2023-05-14T01:38:39.186Z,3.70
2023-05-14T01:41:26.329Z,3.30
2023-05-14T01:46:57.070Z,3.70
2023-05-14T01:49:42.727Z,3.90
2023-05-14T01:52:27.988Z,3.20
2023-05-14T01:55:14.742Z,3.40
2023-05-14T01:58:00.338Z,4.10
2023-05-14T02:00:45.711Z,3.50
2023-05-14T02:03:31.393Z,3.30
2023-05-14T02:06:17.390Z,3.60
2023-05-14T02:09:03.667Z,3.90
2023-05-14T02:11:49.171Z,3.60
2023-05-14T02:14:34.655Z,3.80
2023-05-14T02:20:09.896Z,3.40
2023-05-14T02:22:55.456Z,3.40
2023-05-14T02:25:40.641Z,3.20
2023-05-14T02:28:26.271Z,3.40
2023-05-14T02:31:12.490Z,3.50
2023-05-14T02:33:58.121Z,3.50
2023-05-14T02:36:43.752Z,5.60
2023-05-14T02:39:29.154Z,4.40
2023-05-14T02:42:14.807Z,4.00
2023-05-14T02:44:59.917Z,3.50
2023-05-14T02:47:45.656Z,3.60
2023-05-14T02:50:31.395Z,3.60
2023-05-14T02:53:19.247Z,3.40
2023-05-14T02:56:05.238Z,4.30
2023-05-14T02:58:50.574Z,4.20
2023-05-14T03:01:36.013Z,3.60
2023-05-14T03:04:21.652Z,3.50
2023-05-14T03:07:07.351Z,3.50
2023-05-14T03:09:53.072Z,3.80
2023-05-14T03:12:38.554Z,3.30
2023-05-14T03:15:23.856Z,3.20
2023-05-14T03:18:09.762Z,3.20
2023-05-14T03:20:55.003Z,3.60
2023-05-14T03:23:40.640Z,3.60
2023-05-14T03:26:27.659Z,3.30
2023-05-14T03:29:17.349Z,3.80
2023-05-14T03:32:03.914Z,5.30
2023-05-14T03:34:49.458Z,3.90
2023-05-14T03:37:35.077Z,3.80
2023-05-14T03:40:20.687Z,8.30
2023-05-14T03:43:06.628Z,5.40
2023-05-14T03:45:52.741Z,4.20
2023-05-14T03:48:38.812Z,5.70
2023-05-14T03:51:24.468Z,5.10
2023-05-14T03:54:10.269Z,4.90
2023-05-14T03:56:57.200Z,5.30
2023-05-14T03:59:42.864Z,4.80
2023-05-14T04:02:28.415Z,4.80
2023-05-14T04:05:13.964Z,4.80
2023-05-14T04:08:00.222Z,4.70
2023-05-14T04:10:45.746Z,4.70
2023-05-14T04:13:31.034Z,3.80
2023-05-14T04:16:16.440Z,3.60
2023-05-14T04:19:04.449Z,3.70
2023-05-14T04:21:50.256Z,2.90
2023-05-14T04:24:35.626Z,3.00
2023-05-14T04:27:21.589Z,3.00
2023-05-14T04:30:10.708Z,3.60
2023-05-14T04:32:56.461Z,7.10
2023-05-14T04:35:43.704Z,3.30
2023-05-14T04:38:28.917Z,2.80
2023-05-14T04:41:14.278Z,2.90
2023-05-14T04:44:01.334Z,3.80
2023-05-14T04:46:46.833Z,3.50
2023-05-14T04:49:32.894Z,3.80
2023-05-14T04:52:18.479Z,3.80
2023-05-14T04:55:04.466Z,3.70
2023-05-14T04:57:49.921Z,2.60
2023-05-14T05:00:35.769Z,2.70
2023-05-14T05:03:21.402Z,2.70
2023-05-14T05:06:07.123Z,2.40
2023-05-14T05:08:52.715Z,2.70
2023-05-14T05:11:38.294Z,2.30
2023-05-14T05:14:23.702Z,2.90
2023-05-14T05:17:09.085Z,2.90
2023-05-14T05:19:54.781Z,2.20
2023-05-14T05:22:40.092Z,3.90
2023-05-14T05:25:25.471Z,3.00
2023-05-14T05:28:11.142Z,2.60
2023-05-14T05:30:56.594Z,1.80
2023-05-14T05:33:42.281Z,3.10
2023-05-14T05:36:28.208Z,3.70
2023-05-14T05:39:13.516Z,3.90
2023-05-14T05:41:59.013Z,3.20
2023-05-14T05:44:44.427Z,3.20
2023-05-14T05:47:30.241Z,2.10
2023-05-14T05:50:16.383Z,2.40
2023-05-14T05:53:03.379Z,1.90
2023-05-14T05:55:50.985Z,2.10
2023-05-14T05:58:38.400Z,1.50
2023-05-14T06:01:23.821Z,2.00
2023-05-14T06:04:09.522Z,2.00
2023-05-14T06:06:54.789Z,2.00
2023-05-14T06:09:40.310Z,1.80
2023-05-14T06:12:27.692Z,1.70
2023-05-14T06:15:13.023Z,1.90
2023-05-14T06:17:58.398Z,1.60
2023-05-14T06:20:44.432Z,2.30
2023-05-14T06:26:15.482Z,2.20
2023-05-14T06:29:01.334Z,5.60
2023-05-14T06:31:46.649Z,1.70
2023-05-14T06:34:32.584Z,2.00
2023-05-14T06:37:17.732Z,2.30
2023-05-14T06:40:03.655Z,2.00
2023-05-14T06:42:50.170Z,1.80
2023-05-14T06:45:35.965Z,2.40
2023-05-14T06:48:21.464Z,3.10
2023-05-14T06:51:06.884Z,2.80
2023-05-14T06:53:53.698Z,1.90
2023-05-14T06:56:39.427Z,3.20
2023-05-14T06:59:25.422Z,2.90
2023-05-14T07:02:11.749Z,2.20
2023-05-14T07:04:58.536Z,2.50
2023-05-14T07:07:43.926Z,2.10
2023-05-14T07:10:30.340Z,1.80
2023-05-14T07:16:01.430Z,1.70
2023-05-14T07:21:33.700Z,1.90
2023-05-14T07:24:19.206Z,2.00
2023-05-14T07:27:04.751Z,1.90
2023-05-14T07:29:50.359Z,1.90
2023-05-14T07:32:35.653Z,1.90
2023-05-14T07:35:22.875Z,1.90
2023-05-14T07:38:08.133Z,2.20
2023-05-14T07:40:53.850Z,3.00
2023-05-14T07:43:39.959Z,1.70
2023-05-14T07:46:26.662Z,2.10
2023-05-14T07:49:13.393Z,2.00
2023-05-14T07:51:58.694Z,2.20
2023-05-14T07:54:44.089Z,3.00
2023-05-14T07:57:29.494Z,2.10
2023-05-14T08:00:16.187Z,2.10
2023-05-14T08:03:01.781Z,2.40
2023-05-14T08:05:47.373Z,1.90
2023-05-14T08:08:33.275Z,2.40
2023-05-14T08:11:18.741Z,2.20
2023-05-14T08:14:04.521Z,1.80
2023-05-14T08:16:50.433Z,1.40
2023-05-14T08:19:36.009Z,1.40
2023-05-14T08:22:22.530Z,1.60
2023-05-14T08:25:08.217Z,1.80
2023-05-14T08:27:53.679Z,1.50
2023-05-14T08:30:39.292Z,1.60
2023-05-14T08:33:24.654Z,1.80
2023-05-14T08:36:10.382Z,2.20
2023-05-14T08:38:55.686Z,2.30
2023-05-14T08:41:42.290Z,1.70
2023-05-14T08:44:35.701Z,1.70
2023-05-14T08:47:23.198Z,2.20
2023-05-14T08:50:09.341Z,1.90
2023-05-14T08:52:54.920Z,2.10
2023-05-14T08:55:41.874Z,1.90
2023-05-14T08:58:28.168Z,1.90
2023-05-14T09:01:15.286Z,1.60
2023-05-14T09:04:06.383Z,1.90
2023-05-14T09:06:53.342Z,2.40
2023-05-14T09:09:40.948Z,2.00
2023-05-14T09:12:26.378Z,1.60
2023-05-14T09:15:12.605Z,1.50
2023-05-14T09:17:58.100Z,2.10
2023-05-14T09:20:46.792Z,1.80
2023-05-14T09:23:35.190Z,1.90
2023-05-14T09:26:25.675Z,1.40
2023-05-14T09:29:11.183Z,1.80
2023-05-14T09:31:59.420Z,1.90
2023-05-14T09:34:44.933Z,1.70
2023-05-14T09:37:30.341Z,2.10
2023-05-14T09:40:16.901Z,2.00
2023-05-14T09:43:03.040Z,2.60
2023-05-14T09:48:34.193Z,1.60
2023-05-14T09:51:20.456Z,2.20
2023-05-14T09:54:09.136Z,1.50
2023-05-14T09:56:55.820Z,1.60
2023-05-14T09:59:41.449Z,1.80
2023-05-14T10:02:37.030Z,2.60
2023-05-14T10:05:23.145Z,1.50
2023-05-14T10:08:18.395Z,1.60
2023-05-14T10:11:09.104Z,1.60
2023-05-14T10:14:00.288Z,1.50
2023-05-14T10:16:53.258Z,1.50
2023-05-14T10:19:40.425Z,1.90
2023-05-14T10:22:33.040Z,3.30
2023-05-14T10:25:19.140Z,3.60
2023-05-14T10:28:05.669Z,4.00
2023-05-14T10:30:51.290Z,2.60
2023-05-14T10:33:49.338Z,7.90
2023-05-14T10:36:35.154Z,3.30
2023-05-14T10:39:20.791Z,2.80
2023-05-14T10:42:07.975Z,2.60
2023-05-14T10:45:01.322Z,6.10
2023-05-14T10:47:48.013Z,2.60
2023-05-14T10:50:34.078Z,2.30
2023-05-14T10:53:20.533Z,2.50
2023-05-14T10:56:08.344Z,2.20
2023-05-14T10:58:57.894Z,3.20
2023-05-14T11:01:45.329Z,1.90
2023-05-14T11:04:31.221Z,1.80
2023-05-14T11:07:18.691Z,3.50
2023-05-14T11:10:06.771Z,1.90
2023-05-14T11:12:52.240Z,1.50
2023-05-14T11:15:42.868Z,3.10
2023-05-14T11:18:29.648Z,1.50
2023-05-14T11:21:16.939Z,1.30
2023-05-14T11:24:04.801Z,1.50
2023-05-14T11:26:50.045Z,1.60
2023-05-14T11:29:37.087Z,1.20
2023-05-14T11:32:22.388Z,1.90
2023-05-14T11:35:08.214Z,1.50
2023-05-14T11:37:53.742Z,1.70
2023-05-14T11:40:39.160Z,1.40
2023-05-14T11:43:28.579Z,1.80
2023-05-14T11:46:18.294Z,1.40
2023-05-14T11:49:08.751Z,1.30
2023-05-14T11:52:02.893Z,1.60
2023-05-14T11:54:50.141Z,4.20
2023-05-14T11:57:41.987Z,2.30
2023-05-14T12:00:28.584Z,1.30
2023-05-14T12:03:14.615Z,2.30
2023-05-14T12:06:05.913Z,1.80
2023-05-14T12:08:51.353Z,1.60
2023-05-14T12:11:37.264Z,1.60
2023-05-14T12:14:23.905Z,2.30
2023-05-14T12:17:13.199Z,4.50
2023-05-14T12:19:58.756Z,2.80
2023-05-14T12:22:44.133Z,1.60
2023-05-14T12:25:29.365Z,1.50
2023-05-14T12:28:15.859Z,2.50
2023-05-14T12:31:02.211Z,1.90
2023-05-14T12:33:47.906Z,1.40
2023-05-14T12:36:33.378Z,2.30
2023-05-14T12:39:27.793Z,1.60
2023-05-14T12:42:21.656Z,1.40
2023-05-14T12:45:08.172Z,5.00
2023-05-14T12:47:54.782Z,2.00
2023-05-14T12:50:40.286Z,3.20
2023-05-14T12:53:26.455Z,1.40
2023-05-14T12:56:12.279Z,2.00
2023-05-14T12:58:57.774Z,2.00
2023-05-14T13:01:43.184Z,1.80
2023-05-14T13:04:28.625Z,2.00
2023-05-14T13:10:00.372Z,1.80
2023-05-14T13:12:46.182Z,1.70
2023-05-14T13:15:33.949Z,1.80
2023-05-14T13:18:19.740Z,1.60
2023-05-14T13:21:05.898Z,1.20
2023-05-14T13:23:51.417Z,1.50
2023-05-14T13:26:37.598Z,2.30
2023-05-14T13:29:23.386Z,1.80
2023-05-14T13:32:11.340Z,1.70
2023-05-14T13:34:56.659Z,3.50
2023-05-14T13:37:43.462Z,1.10
2023-05-14T13:40:28.725Z,1.50
2023-05-14T13:43:16.367Z,1.50
2023-05-14T13:46:03.709Z,1.50
2023-05-14T13:48:49.152Z,1.70
2023-05-14T13:51:34.696Z,1.30
2023-05-14T13:54:21.589Z,1.40
2023-05-14T13:57:06.966Z,1.50
2023-05-14T13:59:52.425Z,1.90
2023-05-14T14:02:49.220Z,1.40
2023-05-14T14:05:42.832Z,1.90
2023-05-14T14:08:28.546Z,1.90
2023-05-14T14:11:14.018Z,1.60
2023-05-14T14:13:59.439Z,1.50
2023-05-14T14:19:30.474Z,1.40
2023-05-14T14:22:16.768Z,3.00
2023-05-14T14:25:02.732Z,2.10
2023-05-14T14:27:49.323Z,1.30
2023-05-14T14:30:35.177Z,1.20
2023-05-14T14:33:20.776Z,1.20
2023-05-14T14:38:52.124Z,1.50
2023-05-14T14:41:38.558Z,1.30
2023-05-14T14:44:24.210Z,1.30
2023-05-14T14:47:09.705Z,1.40
2023-05-14T14:49:56.709Z,1.40
2023-05-14T14:52:45.420Z,1.50
2023-05-14T14:55:31.837Z,1.30
2023-05-14T14:58:19.396Z,2.10
2023-05-14T15:01:05.284Z,1.50
2023-05-14T15:06:36.429Z,1.50
2023-05-14T15:09:22.135Z,1.00
2023-05-14T15:12:10.276Z,1.40
2023-05-14T15:14:55.600Z,1.20
2023-05-14T15:20:26.888Z,1.70
2023-05-14T15:23:12.383Z,1.40
2023-05-14T15:25:57.516Z,1.00
2023-05-14T15:31:28.780Z,1.20
2023-05-14T15:34:14.208Z,1.30
2023-05-14T15:36:59.881Z,1.80
2023-05-14T15:39:44.972Z,1.50
2023-05-14T15:42:30.754Z,1.40
2023-05-14T15:45:15.983Z,1.40
2023-05-14T15:48:01.656Z,2.20
2023-05-14T15:50:49.557Z,1.30
2023-05-14T15:53:35.378Z,1.70
2023-05-14T15:56:24.787Z,2.40
2023-05-14T15:59:13.886Z,3.30
2023-05-14T16:01:59.570Z,3.20
2023-05-14T16:04:45.114Z,1.60
2023-05-14T16:07:30.691Z,1.60
2023-05-14T16:10:16.225Z,1.30
2023-05-14T16:13:01.548Z,1.50
2023-05-14T16:15:48.967Z,1.30
2023-05-14T16:18:34.114Z,1.50
2023-05-14T16:21:19.501Z,1.50
2023-05-14T16:24:05.704Z,1.40
2023-05-14T16:26:51.257Z,1.50
2023-05-14T16:29:36.656Z,1.40
2023-05-14T16:32:24.552Z,1.20
2023-05-14T16:35:10.250Z,1.50
2023-05-14T16:37:55.744Z,1.70
2023-05-14T16:40:41.286Z,1.40
2023-05-14T16:43:27.304Z,1.80
2023-05-14T16:46:13.586Z,2.00
2023-05-14T16:48:59.445Z,2.50
2023-05-14T16:51:44.661Z,1.60
2023-05-14T16:54:30.089Z,1.50
2023-05-14T16:57:16.726Z,1.70
2023-05-14T17:00:05.483Z,1.80
2023-05-14T17:02:53.488Z,1.50
2023-05-14T17:05:38.774Z,1.80
2023-05-14T17:08:25.237Z,1.70
2023-05-14T17:11:10.608Z,1.80
2023-05-14T17:13:58.965Z,1.60
2023-05-14T17:16:44.445Z,1.80
2023-05-14T17:19:29.890Z,1.90
2023-05-14T17:22:16.364Z,1.90
2023-05-14T17:25:02.766Z,2.30
2023-05-14T17:27:48.264Z,2.00
2023-05-14T17:30:33.609Z,3.10
2023-05-14T17:33:19.132Z,2.80
2023-05-14T17:36:04.915Z,2.20
2023-05-14T17:38:50.137Z,2.40
2023-05-14T17:41:35.645Z,5.80
2023-05-14T17:44:21.191Z,3.30
2023-05-14T17:47:08.569Z,2.20
2023-05-14T17:49:54.075Z,2.60
2023-05-14T17:52:41.629Z,3.10
2023-05-14T17:55:27.047Z,5.10
2023-05-14T17:58:14.804Z,3.10
2023-05-14T18:01:01.532Z,4.30
2023-05-14T18:03:47.324Z,4.80
2023-05-14T18:06:32.997Z,4.30
2023-05-14T18:09:18.859Z,4.50
2023-05-14T18:12:07.051Z,4.00
2023-05-14T18:14:52.637Z,4.30
2023-05-14T18:17:38.523Z,4.10
2023-05-14T18:20:23.983Z,3.60
2023-05-14T18:23:09.530Z,4.20
2023-05-14T18:25:55.159Z,4.50
2023-05-14T18:28:41.713Z,4.90
2023-05-14T18:31:27.947Z,4.60
2023-05-14T18:34:13.450Z,3.80
2023-05-14T18:36:59.309Z,3.10
2023-05-14T18:39:44.870Z,3.60
2023-05-14T18:42:30.272Z,3.60
2023-05-14T18:45:15.831Z,2.90
2023-05-14T18:48:01.205Z,3.00
2023-05-14T18:50:46.835Z,3.60
2023-05-14T18:53:32.861Z,2.80
2023-05-14T18:56:18.515Z,2.60
2023-05-14T18:59:04.237Z,2.70
2023-05-14T19:01:49.411Z,2.50
2023-05-14T19:04:47.894Z,2.70
2023-05-14T19:07:38.036Z,5.10
2023-05-14T19:10:23.568Z,7.90
2023-05-14T19:13:08.973Z,9.30
2023-05-14T19:15:54.800Z,9.30
2023-05-14T19:18:40.702Z,11.70
2023-05-14T19:21:26.664Z,12.00
2023-05-14T19:24:12.012Z,14.60
2023-05-14T19:26:57.533Z,12.90
2023-05-14T19:29:44.000Z,15.40
2023-05-14T19:35:15.933Z,16.00
2023-05-14T19:38:01.164Z,17.50
2023-05-14T19:40:46.874Z,17.60
2023-05-14T19:43:32.606Z,14.10
2023-05-14T19:46:18.135Z,16.90
2023-05-14T19:49:03.667Z,13.40
2023-05-14T19:51:48.979Z,14.10
2023-05-14T19:54:34.275Z,12.70
2023-05-14T19:57:19.846Z,14.20
2023-05-14T20:00:08.250Z,13.40
2023-05-14T20:02:58.857Z,12.40
2023-05-14T20:05:45.016Z,10.30
2023-05-14T20:08:30.356Z,10.10
2023-05-14T20:11:17.417Z,9.20
2023-05-14T20:14:02.673Z,10.20
2023-05-14T20:16:48.417Z,9.70
2023-05-14T20:19:34.359Z,12.10
2023-05-14T20:22:19.784Z,9.80
2023-05-14T20:25:07.578Z,10.70
2023-05-14T20:27:53.030Z,10.50
2023-05-14T20:30:39.480Z,10.30
2023-05-14T20:33:25.741Z,9.60
2023-05-14T20:36:11.349Z,18.70
2023-05-14T20:38:56.576Z,10.50
2023-05-14T20:41:41.970Z,11.40
2023-05-14T20:44:27.397Z,7.90
2023-05-14T20:47:15.871Z,8.70
2023-05-14T20:50:01.513Z,9.40
2023-05-14T20:52:47.410Z,8.00
2023-05-14T20:55:33.252Z,8.00
2023-05-14T20:58:18.581Z,8.80
2023-05-14T21:01:07.385Z,8.50
2023-05-14T21:03:53.234Z,6.90
2023-05-14T21:06:39.042Z,8.10
2023-05-14T21:09:26.638Z,8.40
2023-05-14T21:12:12.308Z,8.10
2023-05-14T21:14:57.889Z,9.30
2023-05-14T21:17:43.274Z,9.10
2023-05-14T21:20:29.125Z,9.90
2023-05-14T21:23:14.398Z,8.80
2023-05-14T21:26:00.151Z,8.20
2023-05-14T21:28:45.620Z,7.00
2023-05-14T21:31:30.965Z,7.50
2023-05-14T21:34:16.321Z,6.30
2023-05-14T21:37:04.560Z,6.50
2023-05-14T21:39:50.914Z,6.70
2023-05-14T21:42:36.701Z,10.90
2023-05-14T21:45:23.629Z,7.20
2023-05-14T21:48:09.877Z,7.60
2023-05-14T21:50:55.639Z,8.00
2023-05-14T21:53:40.858Z,6.50
2023-05-14T21:56:26.704Z,8.00
2023-05-14T21:59:12.298Z,6.50
2023-05-14T22:02:07.051Z,6.60
2023-05-14T22:04:53.337Z,6.70
2023-05-14T22:07:38.752Z,6.70
2023-05-14T22:10:24.084Z,6.20
2023-05-14T22:13:10.440Z,6.10
2023-05-14T22:16:09.204Z,6.10
2023-05-14T22:18:58.150Z,5.90
2023-05-14T22:21:43.357Z,5.80
2023-05-14T22:24:28.691Z,6.00
2023-05-14T22:27:14.252Z,5.40
2023-05-14T22:29:59.906Z,6.30
2023-05-14T22:32:46.873Z,9.10
2023-05-14T22:35:32.214Z,9.00
2023-05-14T22:38:19.436Z,6.60
2023-05-14T22:41:04.684Z,6.60
2023-05-14T22:43:50.347Z,6.30
2023-05-14T22:46:35.797Z,5.30
2023-05-14T22:49:21.042Z,6.60
2023-05-14T22:52:06.709Z,6.20
2023-05-14T22:54:52.640Z,7.20
2023-05-14T22:57:38.317Z,7.20
2023-05-14T23:00:25.023Z,5.90
2023-05-14T23:03:10.521Z,6.60
2023-05-14T23:05:56.120Z,6.50
2023-05-14T23:08:41.397Z,5.90
2023-05-14T23:11:26.897Z,5.80
2023-05-14T23:14:12.101Z,5.70
2023-05-14T23:16:57.440Z,5.40
2023-05-14T23:19:42.977Z,4.80
2023-05-14T23:22:28.365Z,5.80
2023-05-14T23:25:14.058Z,5.30
2023-05-14T23:27:59.973Z,5.60
2023-05-14T23:30:45.357Z,5.00
2023-05-14T23:33:30.968Z,4.90
2023-05-14T23:36:16.427Z,5.30
2023-05-14T23:39:01.881Z,6.60
2023-05-14T23:41:47.134Z,6.70
2023-05-14T23:44:32.460Z,5.70
2023-05-14T23:47:17.901Z,5.40
2023-05-14T23:52:54.103Z,6.30
2023-05-14T23:55:40.616Z,6.20
2023-05-14T23:58:26.070Z,5.50
